Terminal Aerodrome Forecast
Issued by NWS Sterling, VA

Current Version | Previous Version | Text Only | Print | Product List | Glossary Off
Versions: 1 2 3 4 5 6 7 8 9 10 11 12 13 14 15 16 17 18 19 20 21 22 23

095
FTUS41 KLWX 201459 AAA
TAFIAD
TAF AMD
KIAD 201459Z 2015/2118 34008KT P6SM FEW200
     FM202300 04005KT P6SM FEW200
     FM210800 10004KT P6SM SCT200
     FM211200 13004KT P6SM BKN100
     FM211700 17007KT P6SM BKN030=

USA.gov is the U.S. government's official web portal to all federal, state and local government web resources and services.